sensor_id;sensor_type;location;lat;lon;timestamp;P1;durP1;ratioP1;P2;durP2;ratioP2
11064;SDS011;5585;52.530;7.320;2023-04-12T00:01:35;5.10;;;1.50;;
11064;SDS011;5585;52.530;7.320;2023-04-12T00:04:01;3.93;;;1.50;;
11064;SDS011;5585;52.530;7.320;2023-04-12T00:06:28;4.00;;;1.67;;
11064;SDS011;5585;52.530;7.320;2023-04-12T00:08:57;5.17;;;1.60;;
11064;SDS011;5585;52.530;7.320;2023-04-12T00:11:24;4.53;;;1.47;;
11064;SDS011;5585;52.530;7.320;2023-04-12T00:13:53;3.83;;;1.70;;
11064;SDS011;5585;52.530;7.320;2023-04-12T00:16:19;2.92;;;1.25;;
11064;SDS011;5585;52.530;7.320;2023-04-12T00:18:46;4.03;;;1.60;;
11064;SDS011;5585;52.530;7.320;2023-04-12T00:21:12;5.97;;;1.90;;
11064;SDS011;5585;52.530;7.320;2023-04-12T00:23:44;3.57;;;1.53;;
11064;SDS011;5585;52.530;7.320;2023-04-12T00:26:11;4.72;;;1.55;;
11064;SDS011;5585;52.530;7.320;2023-04-12T00:28:38;5.30;;;2.00;;
11064;SDS011;5585;52.530;7.320;2023-04-12T00:31:06;3.80;;;1.63;;
11064;SDS011;5585;52.530;7.320;2023-04-12T00:33:32;4.87;;;1.80;;
11064;SDS011;5585;52.530;7.320;2023-04-12T00:35:59;3.60;;;1.57;;
11064;SDS011;5585;52.530;7.320;2023-04-12T00:38:25;5.03;;;1.87;;
11064;SDS011;5585;52.530;7.320;2023-04-12T00:40:52;3.77;;;1.60;;
11064;SDS011;5585;52.530;7.320;2023-04-12T00:43:18;4.82;;;1.50;;
11064;SDS011;5585;52.530;7.320;2023-04-12T00:45:45;5.97;;;1.87;;
11064;SDS011;5585;52.530;7.320;2023-04-12T00:48:13;5.00;;;1.70;;
11064;SDS011;5585;52.530;7.320;2023-04-12T00:50:40;4.70;;;1.70;;
11064;SDS011;5585;52.530;7.320;2023-04-12T00:53:09;4.63;;;1.73;;
11064;SDS011;5585;52.530;7.320;2023-04-12T00:55:37;5.50;;;2.03;;
11064;SDS011;5585;52.530;7.320;2023-04-12T00:58:04;3.87;;;1.70;;
11064;SDS011;5585;52.530;7.320;2023-04-12T01:00:30;5.93;;;2.10;;
11064;SDS011;5585;52.530;7.320;2023-04-12T01:02:57;5.53;;;2.07;;
11064;SDS011;5585;52.530;7.320;2023-04-12T01:05:27;6.90;;;1.60;;
11064;SDS011;5585;52.530;7.320;2023-04-12T01:07:57;5.70;;;1.90;;
11064;SDS011;5585;52.530;7.320;2023-04-12T01:10:32;5.73;;;1.73;;
11064;SDS011;5585;52.530;7.320;2023-04-12T01:13:01;4.50;;;1.65;;
11064;SDS011;5585;52.530;7.320;2023-04-12T01:15:30;8.00;;;1.83;;
11064;SDS011;5585;52.530;7.320;2023-04-12T01:17:58;5.37;;;1.80;;
11064;SDS011;5585;52.530;7.320;2023-04-12T01:20:29;3.47;;;1.53;;
11064;SDS011;5585;52.530;7.320;2023-04-12T01:23:05;4.23;;;1.87;;
11064;SDS011;5585;52.530;7.320;2023-04-12T01:25:39;4.67;;;1.87;;
11064;SDS011;5585;52.530;7.320;2023-04-12T01:28:14;4.30;;;1.87;;
11064;SDS011;5585;52.530;7.320;2023-04-12T01:30:41;4.38;;;1.83;;
11064;SDS011;5585;52.530;7.320;2023-04-12T01:33:09;9.20;;;2.00;;
11064;SDS011;5585;52.530;7.320;2023-04-12T01:35:37;5.97;;;2.00;;
11064;SDS011;5585;52.530;7.320;2023-04-12T01:38:04;3.13;;;1.70;;
11064;SDS011;5585;52.530;7.320;2023-04-12T01:40:32;5.60;;;2.20;;
11064;SDS011;5585;52.530;7.320;2023-04-12T01:43:05;4.90;;;1.80;;
11064;SDS011;5585;52.530;7.320;2023-04-12T01:45:33;5.40;;;2.17;;
11064;SDS011;5585;52.530;7.320;2023-04-12T01:48:00;6.13;;;2.10;;
11064;SDS011;5585;52.530;7.320;2023-04-12T01:50:29;3.20;;;1.80;;
11064;SDS011;5585;52.530;7.320;2023-04-12T01:52:59;7.80;;;2.10;;
11064;SDS011;5585;52.530;7.320;2023-04-12T01:55:27;6.37;;;2.07;;
11064;SDS011;5585;52.530;7.320;2023-04-12T01:57:55;3.80;;;1.57;;
11064;SDS011;5585;52.530;7.320;2023-04-12T02:00:22;4.37;;;1.47;;
11064;SDS011;5585;52.530;7.320;2023-04-12T02:02:50;3.97;;;1.60;;
11064;SDS011;5585;52.530;7.320;2023-04-12T02:05:17;6.03;;;1.83;;
11064;SDS011;5585;52.530;7.320;2023-04-12T02:07:44;4.50;;;1.60;;
11064;SDS011;5585;52.530;7.320;2023-04-12T02:10:12;5.30;;;1.90;;
11064;SDS011;5585;52.530;7.320;2023-04-12T02:12:38;4.60;;;1.90;;
11064;SDS011;5585;52.530;7.320;2023-04-12T02:15:05;5.23;;;1.93;;
11064;SDS011;5585;52.530;7.320;2023-04-12T02:17:32;5.83;;;2.40;;
11064;SDS011;5585;52.530;7.320;2023-04-12T02:20:01;4.77;;;1.80;;
11064;SDS011;5585;52.530;7.320;2023-04-12T02:22:29;5.23;;;2.30;;
11064;SDS011;5585;52.530;7.320;2023-04-12T02:24:56;4.77;;;1.87;;
11064;SDS011;5585;52.530;7.320;2023-04-12T02:27:23;4.70;;;1.60;;
11064;SDS011;5585;52.530;7.320;2023-04-12T02:29:50;4.93;;;1.40;;
11064;SDS011;5585;52.530;7.320;2023-04-12T02:32:16;4.47;;;1.80;;
11064;SDS011;5585;52.530;7.320;2023-04-12T02:34:43;6.77;;;2.33;;
11064;SDS011;5585;52.530;7.320;2023-04-12T02:37:16;4.97;;;1.90;;
11064;SDS011;5585;52.530;7.320;2023-04-12T02:39:45;3.23;;;1.70;;
11064;SDS011;5585;52.530;7.320;2023-04-12T02:42:12;4.33;;;1.80;;
11064;SDS011;5585;52.530;7.320;2023-04-12T02:44:38;4.17;;;1.83;;
11064;SDS011;5585;52.530;7.320;2023-04-12T02:47:06;4.37;;;2.03;;
11064;SDS011;5585;52.530;7.320;2023-04-12T02:49:32;3.77;;;1.53;;
11064;SDS011;5585;52.530;7.320;2023-04-12T02:51:59;4.70;;;1.60;;
11064;SDS011;5585;52.530;7.320;2023-04-12T02:54:27;5.20;;;1.77;;
11064;SDS011;5585;52.530;7.320;2023-04-12T02:56:54;6.93;;;1.60;;
11064;SDS011;5585;52.530;7.320;2023-04-12T02:59:20;3.40;;;1.60;;
11064;SDS011;5585;52.530;7.320;2023-04-12T03:01:49;3.83;;;1.77;;
11064;SDS011;5585;52.530;7.320;2023-04-12T03:04:15;5.73;;;2.43;;
11064;SDS011;5585;52.530;7.320;2023-04-12T03:06:42;4.83;;;1.73;;
11064;SDS011;5585;52.530;7.320;2023-04-12T03:09:16;5.47;;;1.80;;
11064;SDS011;5585;52.530;7.320;2023-04-12T03:11:44;5.17;;;1.83;;
11064;SDS011;5585;52.530;7.320;2023-04-12T03:14:11;5.30;;;1.77;;
11064;SDS011;5585;52.530;7.320;2023-04-12T03:16:37;5.03;;;1.90;;
11064;SDS011;5585;52.530;7.320;2023-04-12T03:19:04;5.63;;;1.60;;
11064;SDS011;5585;52.530;7.320;2023-04-12T03:21:30;3.70;;;1.60;;
11064;SDS011;5585;52.530;7.320;2023-04-12T03:23:57;4.17;;;1.63;;
11064;SDS011;5585;52.530;7.320;2023-04-12T03:26:23;4.33;;;1.67;;
11064;SDS011;5585;52.530;7.320;2023-04-12T03:28:53;3.10;;;1.70;;
11064;SDS011;5585;52.530;7.320;2023-04-12T03:31:20;7.37;;;2.00;;
11064;SDS011;5585;52.530;7.320;2023-04-12T03:33:46;4.07;;;1.70;;
11064;SDS011;5585;52.530;7.320;2023-04-12T03:36:13;5.83;;;1.60;;
11064;SDS011;5585;52.530;7.320;2023-04-12T03:38:39;4.80;;;1.43;;
11064;SDS011;5585;52.530;7.320;2023-04-12T03:41:06;2.47;;;1.30;;
11064;SDS011;5585;52.530;7.320;2023-04-12T03:43:32;3.07;;;1.53;;
11064;SDS011;5585;52.530;7.320;2023-04-12T03:46:01;4.20;;;1.33;;
11064;SDS011;5585;52.530;7.320;2023-04-12T03:48:28;6.03;;;1.90;;
11064;SDS011;5585;52.530;7.320;2023-04-12T03:50:54;4.43;;;1.20;;
11064;SDS011;5585;52.530;7.320;2023-04-12T03:53:24;2.67;;;1.30;;
11064;SDS011;5585;52.530;7.320;2023-04-12T03:55:51;4.77;;;1.33;;
11064;SDS011;5585;52.530;7.320;2023-04-12T03:58:18;4.80;;;1.37;;
11064;SDS011;5585;52.530;7.320;2023-04-12T04:00:45;3.07;;;1.60;;
11064;SDS011;5585;52.530;7.320;2023-04-12T04:03:14;4.20;;;1.33;;
11064;SDS011;5585;52.530;7.320;2023-04-12T04:05:40;2.63;;;1.00;;
11064;SDS011;5585;52.530;7.320;2023-04-12T04:08:07;5.20;;;1.43;;
11064;SDS011;5585;52.530;7.320;2023-04-12T04:10:34;3.73;;;1.30;;
11064;SDS011;5585;52.530;7.320;2023-04-12T04:13:00;3.43;;;1.20;;
11064;SDS011;5585;52.530;7.320;2023-04-12T04:15:27;4.73;;;1.63;;
11064;SDS011;5585;52.530;7.320;2023-04-12T04:17:53;5.00;;;1.53;;
11064;SDS011;5585;52.530;7.320;2023-04-12T04:20:21;3.07;;;1.33;;
11064;SDS011;5585;52.530;7.320;2023-04-12T04:22:48;4.20;;;1.63;;
11064;SDS011;5585;52.530;7.320;2023-04-12T04:25:17;4.93;;;1.50;;
11064;SDS011;5585;52.530;7.320;2023-04-12T04:27:44;4.93;;;1.33;;
11064;SDS011;5585;52.530;7.320;2023-04-12T04:30:10;3.50;;;1.37;;
11064;SDS011;5585;52.530;7.320;2023-04-12T04:32:39;3.10;;;1.40;;
11064;SDS011;5585;52.530;7.320;2023-04-12T04:35:06;4.30;;;1.50;;
11064;SDS011;5585;52.530;7.320;2023-04-12T04:37:34;5.73;;;1.40;;
11064;SDS011;5585;52.530;7.320;2023-04-12T04:40:01;4.27;;;1.37;;
11064;SDS011;5585;52.530;7.320;2023-04-12T04:42:31;4.20;;;1.40;;
11064;SDS011;5585;52.530;7.320;2023-04-12T04:44:58;5.50;;;1.30;;
11064;SDS011;5585;52.530;7.320;2023-04-12T04:47:28;3.80;;;1.50;;
11064;SDS011;5585;52.530;7.320;2023-04-12T04:49:55;4.03;;;1.20;;
11064;SDS011;5585;52.530;7.320;2023-04-12T04:52:21;4.23;;;1.37;;
11064;SDS011;5585;52.530;7.320;2023-04-12T04:54:49;3.47;;;1.13;;
11064;SDS011;5585;52.530;7.320;2023-04-12T04:57:16;3.83;;;1.73;;
11064;SDS011;5585;52.530;7.320;2023-04-12T04:59:42;4.50;;;1.20;;
11064;SDS011;5585;52.530;7.320;2023-04-12T05:02:09;3.53;;;1.63;;
11064;SDS011;5585;52.530;7.320;2023-04-12T05:04:35;4.23;;;1.43;;
11064;SDS011;5585;52.530;7.320;2023-04-12T05:07:02;4.07;;;1.17;;
11064;SDS011;5585;52.530;7.320;2023-04-12T05:09:28;4.03;;;1.37;;
11064;SDS011;5585;52.530;7.320;2023-04-12T05:11:57;3.57;;;1.30;;
11064;SDS011;5585;52.530;7.320;2023-04-12T05:14:23;4.60;;;1.37;;
11064;SDS011;5585;52.530;7.320;2023-04-12T05:16:50;3.00;;;1.20;;
11064;SDS011;5585;52.530;7.320;2023-04-12T05:19:16;3.77;;;1.53;;
11064;SDS011;5585;52.530;7.320;2023-04-12T05:21:43;3.97;;;1.20;;
11064;SDS011;5585;52.530;7.320;2023-04-12T05:24:09;4.07;;;1.33;;
11064;SDS011;5585;52.530;7.320;2023-04-12T05:26:36;3.90;;;1.17;;
11064;SDS011;5585;52.530;7.320;2023-04-12T05:29:03;3.13;;;1.10;;
11064;SDS011;5585;52.530;7.320;2023-04-12T05:31:30;2.63;;;1.17;;
11064;SDS011;5585;52.530;7.320;2023-04-12T05:33:57;3.17;;;0.87;;
11064;SDS011;5585;52.530;7.320;2023-04-12T05:36:24;2.40;;;1.13;;
11064;SDS011;5585;52.530;7.320;2023-04-12T05:38:50;6.90;;;1.13;;
11064;SDS011;5585;52.530;7.320;2023-04-12T05:41:17;2.33;;;1.30;;
11064;SDS011;5585;52.530;7.320;2023-04-12T05:43:43;3.67;;;1.13;;
11064;SDS011;5585;52.530;7.320;2023-04-12T05:46:11;3.53;;;1.10;;
11064;SDS011;5585;52.530;7.320;2023-04-12T05:48:38;1.60;;;1.00;;
11064;SDS011;5585;52.530;7.320;2023-04-12T05:51:05;2.35;;;1.30;;
11064;SDS011;5585;52.530;7.320;2023-04-12T05:53:31;2.90;;;1.20;;
11064;SDS011;5585;52.530;7.320;2023-04-12T05:55:58;3.80;;;1.20;;
11064;SDS011;5585;52.530;7.320;2023-04-12T05:58:25;3.17;;;1.23;;
11064;SDS011;5585;52.530;7.320;2023-04-12T06:00:51;2.77;;;0.97;;
11064;SDS011;5585;52.530;7.320;2023-04-12T06:03:21;4.60;;;1.43;;
11064;SDS011;5585;52.530;7.320;2023-04-12T06:05:49;3.23;;;1.40;;
11064;SDS011;5585;52.530;7.320;2023-04-12T06:08:16;3.43;;;1.57;;
11064;SDS011;5585;52.530;7.320;2023-04-12T06:10:43;2.30;;;1.37;;
11064;SDS011;5585;52.530;7.320;2023-04-12T06:13:09;2.20;;;1.10;;
11064;SDS011;5585;52.530;7.320;2023-04-12T06:15:36;4.37;;;1.27;;
11064;SDS011;5585;52.530;7.320;2023-04-12T06:18:02;2.87;;;1.33;;
11064;SDS011;5585;52.530;7.320;2023-04-12T06:20:30;2.57;;;1.30;;
11064;SDS011;5585;52.530;7.320;2023-04-12T06:22:57;2.63;;;1.30;;
11064;SDS011;5585;52.530;7.320;2023-04-12T06:25:23;2.00;;;1.20;;
11064;SDS011;5585;52.530;7.320;2023-04-12T06:27:50;3.83;;;1.40;;
11064;SDS011;5585;52.530;7.320;2023-04-12T06:30:17;2.57;;;1.23;;
11064;SDS011;5585;52.530;7.320;2023-04-12T06:32:43;2.80;;;1.40;;
11064;SDS011;5585;52.530;7.320;2023-04-12T06:35:10;2.07;;;1.13;;
11064;SDS011;5585;52.530;7.320;2023-04-12T06:37:38;2.80;;;1.30;;
11064;SDS011;5585;52.530;7.320;2023-04-12T06:40:05;2.87;;;1.30;;
11064;SDS011;5585;52.530;7.320;2023-04-12T06:42:32;2.00;;;1.33;;
11064;SDS011;5585;52.530;7.320;2023-04-12T06:44:58;2.70;;;1.23;;
11064;SDS011;5585;52.530;7.320;2023-04-12T06:47:24;2.20;;;1.17;;
11064;SDS011;5585;52.530;7.320;2023-04-12T06:49:51;2.77;;;1.33;;
11064;SDS011;5585;52.530;7.320;2023-04-12T06:52:19;1.80;;;1.13;;
11064;SDS011;5585;52.530;7.320;2023-04-12T06:54:49;4.37;;;1.57;;
11064;SDS011;5585;52.530;7.320;2023-04-12T06:57:16;3.23;;;1.50;;
11064;SDS011;5585;52.530;7.320;2023-04-12T06:59:42;2.23;;;1.53;;
11064;SDS011;5585;52.530;7.320;2023-04-12T07:02:09;2.67;;;1.40;;
11064;SDS011;5585;52.530;7.320;2023-04-12T07:04:35;2.57;;;1.30;;
11064;SDS011;5585;52.530;7.320;2023-04-12T07:07:02;3.57;;;1.83;;
11064;SDS011;5585;52.530;7.320;2023-04-12T07:09:29;4.60;;;1.67;;
11064;SDS011;5585;52.530;7.320;2023-04-12T07:11:57;5.38;;;1.58;;
11064;SDS011;5585;52.530;7.320;2023-04-12T07:14:24;1.63;;;1.40;;
11064;SDS011;5585;52.530;7.320;2023-04-12T07:16:50;3.47;;;1.50;;
11064;SDS011;5585;52.530;7.320;2023-04-12T07:19:17;3.27;;;1.33;;
11064;SDS011;5585;52.530;7.320;2023-04-12T07:21:43;2.03;;;1.30;;
11064;SDS011;5585;52.530;7.320;2023-04-12T07:24:10;3.47;;;1.90;;
11064;SDS011;5585;52.530;7.320;2023-04-12T07:26:36;4.73;;;1.70;;
11064;SDS011;5585;52.530;7.320;2023-04-12T07:29:04;2.27;;;1.33;;
11064;SDS011;5585;52.530;7.320;2023-04-12T07:31:31;3.17;;;1.60;;
11064;SDS011;5585;52.530;7.320;2023-04-12T07:33:57;2.20;;;1.40;;
11064;SDS011;5585;52.530;7.320;2023-04-12T07:36:24;2.50;;;1.77;;
11064;SDS011;5585;52.530;7.320;2023-04-12T07:38:51;4.30;;;1.70;;
11064;SDS011;5585;52.530;7.320;2023-04-12T07:41:19;3.70;;;1.27;;
11064;SDS011;5585;52.530;7.320;2023-04-12T07:43:46;2.57;;;1.20;;
11064;SDS011;5585;52.530;7.320;2023-04-12T07:46:14;3.17;;;1.27;;
11064;SDS011;5585;52.530;7.320;2023-04-12T07:48:41;2.27;;;1.40;;
11064;SDS011;5585;52.530;7.320;2023-04-12T07:51:07;3.57;;;1.30;;
11064;SDS011;5585;52.530;7.320;2023-04-12T07:53:34;3.57;;;1.53;;
11064;SDS011;5585;52.530;7.320;2023-04-12T07:56:00;2.63;;;1.20;;
11064;SDS011;5585;52.530;7.320;2023-04-12T07:58:29;2.30;;;1.83;;
11064;SDS011;5585;52.530;7.320;2023-04-12T08:00:56;2.60;;;1.50;;
11064;SDS011;5585;52.530;7.320;2023-04-12T08:03:24;2.53;;;1.33;;
11064;SDS011;5585;52.530;7.320;2023-04-12T08:05:51;1.90;;;1.30;;
11064;SDS011;5585;52.530;7.320;2023-04-12T08:08:18;2.33;;;1.30;;
11064;SDS011;5585;52.530;7.320;2023-04-12T08:10:44;3.47;;;1.40;;
11064;SDS011;5585;52.530;7.320;2023-04-12T08:13:11;2.23;;;1.50;;
11064;SDS011;5585;52.530;7.320;2023-04-12T08:15:37;3.60;;;1.53;;
11064;SDS011;5585;52.530;7.320;2023-04-12T08:18:04;3.43;;;1.23;;
11064;SDS011;5585;52.530;7.320;2023-04-12T08:20:32;2.53;;;1.43;;
11064;SDS011;5585;52.530;7.320;2023-04-12T08:22:59;2.80;;;1.40;;
11064;SDS011;5585;52.530;7.320;2023-04-12T08:25:25;3.27;;;1.40;;
11064;SDS011;5585;52.530;7.320;2023-04-12T08:27:52;3.83;;;1.53;;
11064;SDS011;5585;52.530;7.320;2023-04-12T08:30:18;3.33;;;1.60;;
11064;SDS011;5585;52.530;7.320;2023-04-12T08:32:50;2.30;;;1.40;;
11064;SDS011;5585;52.530;7.320;2023-04-12T08:35:17;2.30;;;1.27;;
11064;SDS011;5585;52.530;7.320;2023-04-12T08:37:45;2.50;;;1.60;;
11064;SDS011;5585;52.530;7.320;2023-04-12T08:40:11;2.93;;;1.20;;
11064;SDS011;5585;52.530;7.320;2023-04-12T08:42:38;1.93;;;1.47;;
11064;SDS011;5585;52.530;7.320;2023-04-12T08:45:04;2.60;;;1.33;;
11064;SDS011;5585;52.530;7.320;2023-04-12T08:47:31;1.93;;;1.40;;
11064;SDS011;5585;52.530;7.320;2023-04-12T08:49:58;2.23;;;1.30;;
11064;SDS011;5585;52.530;7.320;2023-04-12T08:52:25;1.40;;;1.27;;
11064;SDS011;5585;52.530;7.320;2023-04-12T08:54:53;1.27;;;1.17;;
11064;SDS011;5585;52.530;7.320;2023-04-12T08:57:20;1.87;;;1.50;;
11064;SDS011;5585;52.530;7.320;2023-04-12T08:59:46;1.83;;;1.30;;
11064;SDS011;5585;52.530;7.320;2023-04-12T09:02:15;2.77;;;1.50;;
11064;SDS011;5585;52.530;7.320;2023-04-12T09:04:48;3.03;;;1.40;;
11064;SDS011;5585;52.530;7.320;2023-04-12T09:07:15;2.03;;;1.60;;
11064;SDS011;5585;52.530;7.320;2023-04-12T09:09:42;3.07;;;1.70;;
11064;SDS011;5585;52.530;7.320;2023-04-12T09:12:10;1.70;;;1.53;;
11064;SDS011;5585;52.530;7.320;2023-04-12T09:14:37;1.90;;;1.33;;
11064;SDS011;5585;52.530;7.320;2023-04-12T09:17:04;1.77;;;1.60;;
11064;SDS011;5585;52.530;7.320;2023-04-12T09:19:30;2.13;;;1.60;;
11064;SDS011;5585;52.530;7.320;2023-04-12T09:21:57;1.50;;;1.40;;
11064;SDS011;5585;52.530;7.320;2023-04-12T09:24:24;2.27;;;1.47;;
11064;SDS011;5585;52.530;7.320;2023-04-12T09:26:59;2.40;;;1.43;;
11064;SDS011;5585;52.530;7.320;2023-04-12T09:29:28;1.43;;;1.30;;
11064;SDS011;5585;52.530;7.320;2023-04-12T09:31:55;2.40;;;1.50;;
11064;SDS011;5585;52.530;7.320;2023-04-12T09:34:22;2.20;;;1.43;;
11064;SDS011;5585;52.530;7.320;2023-04-12T09:36:48;3.73;;;1.67;;
11064;SDS011;5585;52.530;7.320;2023-04-12T09:39:15;1.47;;;1.23;;
11064;SDS011;5585;52.530;7.320;2023-04-12T09:41:41;1.97;;;1.60;;
11064;SDS011;5585;52.530;7.320;2023-04-12T09:44:08;1.77;;;1.67;;
11064;SDS011;5585;52.530;7.320;2023-04-12T09:46:36;2.53;;;1.83;;
11064;SDS011;5585;52.530;7.320;2023-04-12T09:49:15;1.87;;;1.70;;
11064;SDS011;5585;52.530;7.320;2023-04-12T09:51:41;1.70;;;1.60;;
11064;SDS011;5585;52.530;7.320;2023-04-12T09:54:08;2.00;;;1.80;;
11064;SDS011;5585;52.530;7.320;2023-04-12T09:56:35;2.33;;;1.60;;
11064;SDS011;5585;52.530;7.320;2023-04-12T09:59:04;1.92;;;1.70;;
11064;SDS011;5585;52.530;7.320;2023-04-12T10:01:32;1.80;;;1.70;;
11064;SDS011;5585;52.530;7.320;2023-04-12T10:04:01;2.20;;;1.77;;
11064;SDS011;5585;52.530;7.320;2023-04-12T10:06:28;2.30;;;2.10;;
11064;SDS011;5585;52.530;7.320;2023-04-12T10:08:55;2.70;;;1.90;;
11064;SDS011;5585;52.530;7.320;2023-04-12T10:11:21;3.07;;;1.87;;
11064;SDS011;5585;52.530;7.320;2023-04-12T10:13:49;2.33;;;1.90;;
11064;SDS011;5585;52.530;7.320;2023-04-12T10:16:16;3.50;;;2.37;;
11064;SDS011;5585;52.530;7.320;2023-04-12T10:18:43;2.10;;;1.80;;
11064;SDS011;5585;52.530;7.320;2023-04-12T10:21:12;2.73;;;2.03;;
11064;SDS011;5585;52.530;7.320;2023-04-12T10:23:39;2.70;;;2.33;;
11064;SDS011;5585;52.530;7.320;2023-04-12T10:26:05;3.10;;;2.40;;
11064;SDS011;5585;52.530;7.320;2023-04-12T10:28:32;1.97;;;1.87;;
11064;SDS011;5585;52.530;7.320;2023-04-12T10:30:58;2.40;;;2.20;;
11064;SDS011;5585;52.530;7.320;2023-04-12T10:33:25;2.23;;;2.03;;
11064;SDS011;5585;52.530;7.320;2023-04-12T10:35:53;1.77;;;1.60;;
11064;SDS011;5585;52.530;7.320;2023-04-12T10:38:22;3.13;;;2.20;;
11064;SDS011;5585;52.530;7.320;2023-04-12T10:41:07;2.00;;;1.90;;
11064;SDS011;5585;52.530;7.320;2023-04-12T10:43:33;2.90;;;2.60;;
11064;SDS011;5585;52.530;7.320;2023-04-12T10:46:00;2.97;;;2.43;;
11064;SDS011;5585;52.530;7.320;2023-04-12T10:48:29;2.73;;;2.50;;
11064;SDS011;5585;52.530;7.320;2023-04-12T10:51:13;2.60;;;2.40;;
11064;SDS011;5585;52.530;7.320;2023-04-12T10:53:41;3.08;;;2.40;;
11064;SDS011;5585;52.530;7.320;2023-04-12T10:58:56;3.23;;;2.83;;
11064;SDS011;5585;52.530;7.320;2023-04-12T11:01:22;2.80;;;2.60;;
11064;SDS011;5585;52.530;7.320;2023-04-12T11:09:24;3.70;;;3.40;;
11064;SDS011;5585;52.530;7.320;2023-04-12T11:11:51;3.45;;;3.25;;
11064;SDS011;5585;52.530;7.320;2023-04-12T11:14:24;3.40;;;3.03;;
11064;SDS011;5585;52.530;7.320;2023-04-12T11:19:36;3.20;;;2.83;;
11064;SDS011;5585;52.530;7.320;2023-04-12T11:22:03;3.10;;;2.90;;
11064;SDS011;5585;52.530;7.320;2023-04-12T11:24:31;3.63;;;2.70;;
11064;SDS011;5585;52.530;7.320;2023-04-12T11:26:58;2.90;;;2.70;;
11064;SDS011;5585;52.530;7.320;2023-04-12T11:29:25;2.58;;;2.38;;
11064;SDS011;5585;52.530;7.320;2023-04-12T11:31:51;2.47;;;2.27;;
11064;SDS011;5585;52.530;7.320;2023-04-12T11:34:19;3.30;;;2.20;;
11064;SDS011;5585;52.530;7.320;2023-04-12T11:36:46;2.42;;;2.22;;
11064;SDS011;5585;52.530;7.320;2023-04-12T11:39:13;2.63;;;2.42;;
11064;SDS011;5585;52.530;7.320;2023-04-12T11:41:44;2.25;;;2.05;;
11064;SDS011;5585;52.530;7.320;2023-04-12T11:44:11;2.03;;;1.93;;
11064;SDS011;5585;52.530;7.320;2023-04-12T11:46:38;2.60;;;2.40;;
11064;SDS011;5585;52.530;7.320;2023-04-12T11:49:04;2.75;;;2.10;;
11064;SDS011;5585;52.530;7.320;2023-04-12T11:51:31;2.88;;;2.50;;
11064;SDS011;5585;52.530;7.320;2023-04-12T11:53:59;2.47;;;2.20;;
11064;SDS011;5585;52.530;7.320;2023-04-12T11:56:25;3.10;;;2.50;;
11064;SDS011;5585;52.530;7.320;2023-04-12T11:58:55;2.05;;;1.92;;
11064;SDS011;5585;52.530;7.320;2023-04-12T12:01:21;2.58;;;2.20;;
11064;SDS011;5585;52.530;7.320;2023-04-12T12:03:48;2.50;;;1.63;;
11064;SDS011;5585;52.530;7.320;2023-04-12T12:06:14;2.17;;;1.50;;
11064;SDS011;5585;52.530;7.320;2023-04-12T12:08:41;1.80;;;1.70;;
11064;SDS011;5585;52.530;7.320;2023-04-12T12:11:08;1.42;;;1.33;;
11064;SDS011;5585;52.530;7.320;2023-04-12T12:13:44;2.38;;;1.55;;
11064;SDS011;5585;52.530;7.320;2023-04-12T12:16:12;2.63;;;1.60;;
11064;SDS011;5585;52.530;7.320;2023-04-12T12:18:39;2.58;;;1.20;;
11064;SDS011;5585;52.530;7.320;2023-04-12T12:21:07;2.15;;;1.30;;
11064;SDS011;5585;52.530;7.320;2023-04-12T12:23:33;2.00;;;1.25;;
11064;SDS011;5585;52.530;7.320;2023-04-12T12:26:01;4.85;;;1.80;;
11064;SDS011;5585;52.530;7.320;2023-04-12T12:28:28;2.53;;;1.10;;
11064;SDS011;5585;52.530;7.320;2023-04-12T12:30:55;1.48;;;0.98;;
11064;SDS011;5585;52.530;7.320;2023-04-12T12:33:23;2.42;;;0.98;;
11064;SDS011;5585;52.530;7.320;2023-04-12T12:35:54;2.38;;;1.20;;
11064;SDS011;5585;52.530;7.320;2023-04-12T12:38:20;2.15;;;0.95;;
11064;SDS011;5585;52.530;7.320;2023-04-12T12:40:48;2.40;;;1.30;;
11064;SDS011;5585;52.530;7.320;2023-04-12T12:43:16;2.47;;;1.25;;
11064;SDS011;5585;52.530;7.320;2023-04-12T12:45:43;1.60;;;0.95;;
11064;SDS011;5585;52.530;7.320;2023-04-12T12:48:10;3.15;;;1.65;;
11064;SDS011;5585;52.530;7.320;2023-04-12T12:50:38;5.50;;;2.00;;
11064;SDS011;5585;52.530;7.320;2023-04-12T12:53:05;3.85;;;1.70;;
11064;SDS011;5585;52.530;7.320;2023-04-12T12:55:32;2.60;;;1.52;;
11064;SDS011;5585;52.530;7.320;2023-04-12T12:57:59;6.75;;;1.92;;
11064;SDS011;5585;52.530;7.320;2023-04-12T13:00:26;5.53;;;1.80;;
11064;SDS011;5585;52.530;7.320;2023-04-12T13:02:52;4.95;;;2.05;;
11064;SDS011;5585;52.530;7.320;2023-04-12T13:05:19;4.32;;;2.22;;
11064;SDS011;5585;52.530;7.320;2023-04-12T13:07:47;4.13;;;1.90;;
11064;SDS011;5585;52.530;7.320;2023-04-12T13:10:15;4.93;;;2.05;;
11064;SDS011;5585;52.530;7.320;2023-04-12T13:12:42;2.55;;;1.90;;
11064;SDS011;5585;52.530;7.320;2023-04-12T13:15:09;3.53;;;1.48;;
11064;SDS011;5585;52.530;7.320;2023-04-12T13:17:36;3.13;;;1.52;;
11064;SDS011;5585;52.530;7.320;2023-04-12T13:20:02;4.65;;;1.23;;
11064;SDS011;5585;52.530;7.320;2023-04-12T13:22:29;3.67;;;1.90;;
11064;SDS011;5585;52.530;7.320;2023-04-12T13:24:57;2.58;;;1.40;;
11064;SDS011;5585;52.530;7.320;2023-04-12T13:27:24;7.18;;;1.85;;
11064;SDS011;5585;52.530;7.320;2023-04-12T13:29:51;4.65;;;2.50;;
11064;SDS011;5585;52.530;7.320;2023-04-12T13:32:18;6.32;;;2.20;;
11064;SDS011;5585;52.530;7.320;2023-04-12T13:34:44;5.00;;;2.08;;
11064;SDS011;5585;52.530;7.320;2023-04-12T13:37:11;5.28;;;2.15;;
11064;SDS011;5585;52.530;7.320;2023-04-12T13:39:37;3.00;;;1.40;;
11064;SDS011;5585;52.530;7.320;2023-04-12T13:42:06;3.55;;;1.70;;
11064;SDS011;5585;52.530;7.320;2023-04-12T13:44:33;4.75;;;1.50;;
11064;SDS011;5585;52.530;7.320;2023-04-12T13:47:00;5.60;;;1.73;;
11064;SDS011;5585;52.530;7.320;2023-04-12T13:49:27;4.70;;;1.80;;
11064;SDS011;5585;52.530;7.320;2023-04-12T13:51:54;3.45;;;1.80;;
11064;SDS011;5585;52.530;7.320;2023-04-12T13:54:20;5.63;;;1.50;;
11064;SDS011;5585;52.530;7.320;2023-04-12T13:56:47;6.80;;;1.77;;
11064;SDS011;5585;52.530;7.320;2023-04-12T13:59:15;4.72;;;1.60;;
11064;SDS011;5585;52.530;7.320;2023-04-12T14:01:41;3.92;;;1.55;;
11064;SDS011;5585;52.530;7.320;2023-04-12T14:04:08;5.97;;;1.85;;
11064;SDS011;5585;52.530;7.320;2023-04-12T14:06:34;6.47;;;2.13;;
11064;SDS011;5585;52.530;7.320;2023-04-12T14:09:02;4.88;;;2.17;;
11064;SDS011;5585;52.530;7.320;2023-04-12T14:11:39;3.90;;;1.27;;
11064;SDS011;5585;52.530;7.320;2023-04-12T14:14:09;3.33;;;1.00;;
11064;SDS011;5585;52.530;7.320;2023-04-12T14:16:37;2.95;;;1.10;;
11064;SDS011;5585;52.530;7.320;2023-04-12T14:19:03;6.57;;;1.73;;
11064;SDS011;5585;52.530;7.320;2023-04-12T14:21:30;2.45;;;1.17;;
11064;SDS011;5585;52.530;7.320;2023-04-12T14:23:57;4.45;;;1.50;;
11064;SDS011;5585;52.530;7.320;2023-04-12T14:26:23;3.03;;;1.42;;
11064;SDS011;5585;52.530;7.320;2023-04-12T14:28:50;4.05;;;1.52;;
11064;SDS011;5585;52.530;7.320;2023-04-12T14:31:16;3.95;;;1.75;;
11064;SDS011;5585;52.530;7.320;2023-04-12T14:33:44;3.17;;;1.80;;
11064;SDS011;5585;52.530;7.320;2023-04-12T14:36:11;3.95;;;1.63;;
11064;SDS011;5585;52.530;7.320;2023-04-12T14:38:37;3.38;;;1.55;;
11064;SDS011;5585;52.530;7.320;2023-04-12T14:41:05;4.07;;;2.33;;
11064;SDS011;5585;52.530;7.320;2023-04-12T14:43:32;5.25;;;1.45;;
11064;SDS011;5585;52.530;7.320;2023-04-12T14:45:58;3.78;;;1.40;;
11064;SDS011;5585;52.530;7.320;2023-04-12T14:48:25;4.60;;;1.55;;
11064;SDS011;5585;52.530;7.320;2023-04-12T14:50:53;4.80;;;1.73;;
11064;SDS011;5585;52.530;7.320;2023-04-12T14:53:19;3.33;;;1.60;;
11064;SDS011;5585;52.530;7.320;2023-04-12T14:55:47;4.18;;;1.40;;
11064;SDS011;5585;52.530;7.320;2023-04-12T14:58:13;2.05;;;1.20;;
11064;SDS011;5585;52.530;7.320;2023-04-12T15:00:40;3.33;;;1.50;;
11064;SDS011;5585;52.530;7.320;2023-04-12T15:03:06;3.80;;;1.45;;
11064;SDS011;5585;52.530;7.320;2023-04-12T15:05:34;4.03;;;1.48;;
11064;SDS011;5585;52.530;7.320;2023-04-12T15:08:02;3.00;;;1.40;;
11064;SDS011;5585;52.530;7.320;2023-04-12T15:10:28;3.47;;;1.20;;
11064;SDS011;5585;52.530;7.320;2023-04-12T15:12:55;8.33;;;2.10;;